Zelienople, Pennsylvania
Current Conditions -  °F | °C
As of 1:15 PM on Saturday 25 Oct 2014 (Local Time) from KBTP Reporting Station
Scattered Clouds Scattered Clouds  
Wind Chill: 63°   Ceiling: Unl
Heat Index: 63°   Visibility: 10mi
Dew Point: 48°   Wind: 17mph
Humidity: 59%   Direction: 240°WSW
Pressure: 29.85"   Gusts: 25mph
Location:  40.79°N, 80.14°W
Report Text: KBTP 251715Z AUTO 24015G22KT 10SM SCT065 17/09 A2985 RMK AO1
Loading
Personal Weather Stations






























Interactive Weather Map
Tropical Storm Tracking
New forecast layout! Learn more

10-Day Weather Forecast

Advertisements
Track Severe Weather on mobile